Time;durP1;ratioP1;P1;durP2;ratioP2;P2;SDS_P1;SDS_P2;PMS_P1;PMS_P2;Temp;Humidity;BMP_temperature;BMP_pressure;BME280_temperature;BME280_humidity;BME280_pressure;Samples;Min_cycle;Max_cycle;Signal;HPM_P1;HPM_P2
2024/03/24 00:01:26;;;;;;;9.02;5.88;;;;;;;10.24;55.00;99306.16;5100062;28;20056;-64
2024/03/24 00:03:52;;;;;;;8.52;5.47;;;;;;;10.27;55.07;99310.28;5100615;28;20034;-64
2024/03/24 00:06:17;;;;;;;8.95;5.70;;;;;;;10.18;55.04;99296.22;5100420;28;20040;-63
2024/03/24 00:08:43;;;;;;;12.23;5.70;;;;;;;10.28;55.38;99289.94;5100235;28;20042;-64
2024/03/24 00:11:09;;;;;;;8.30;5.65;;;;;;;10.38;54.04;99293.22;5099928;28;20042;-66
2024/03/24 00:13:34;;;;;;;12.32;6.45;;;;;;;10.31;54.23;99293.06;5100362;28;20314;-66
2024/03/24 00:16:02;;;;;;;9.15;6.57;;;;;;;10.21;54.88;99289.78;5099375;28;20835;-63
2024/03/24 00:18:28;;;;;;;11.00;6.95;;;;;;;10.13;55.46;99284.50;5100904;28;20023;-63
2024/03/24 00:20:53;;;;;;;12.25;7.57;;;;;;;10.09;55.32;99278.72;5100418;28;20221;-64
2024/03/24 00:23:19;;;;;;;14.38;7.80;;;;;;;10.00;55.75;99274.44;5100101;28;20062;-64
2024/03/24 00:25:44;;;;;;;12.43;7.22;;;;;;;9.99;55.77;99272.81;5099708;28;20214;-66
2024/03/24 00:28:10;;;;;;;10.48;7.25;;;;;;;9.88;56.76;99271.34;5098972;28;20042;-66
2024/03/24 00:30:35;;;;;;;14.98;7.18;;;;;;;9.88;56.53;99271.34;5099773;28;20040;-64
2024/03/24 00:33:01;;;;;;;12.65;7.32;;;;;;;9.55;57.58;99269.75;5100118;28;20039;-65
2024/03/24 00:35:26;;;;;;;15.48;8.30;;;;;;;9.42;58.05;99267.63;5100144;28;20329;-64
2024/03/24 00:37:52;;;;;;;11.88;7.10;;;;;;;9.54;57.47;99266.28;5100082;28;20028;-64
2024/03/24 00:40:18;;;;;;;13.13;7.90;;;;;;;9.45;57.78;99264.63;5098866;28;20118;-63
2024/03/24 00:42:43;;;;;;;13.60;7.18;;;;;;;9.62;56.88;99262.81;5099968;28;20028;-64
2024/03/24 00:45:09;;;;;;;12.38;7.93;;;;;;;9.62;56.81;99268.09;5099501;28;20040;-64
2024/03/24 00:47:35;;;;;;;14.52;8.13;;;;;;;9.68;57.24;99267.41;5099895;28;20367;-63
2024/03/24 00:50:03;;;;;;;14.35;8.63;;;;;;;9.81;56.55;99262.44;5100345;28;20311;-65
2024/03/24 00:52:28;;;;;;;12.63;7.20;;;;;;;9.85;56.04;99262.94;5099501;28;20036;-66
2024/03/24 00:54:54;;;;;;;14.25;7.90;;;;;;;9.89;55.57;99265.06;5100437;28;20391;-64
2024/03/24 00:57:19;;;;;;;11.88;8.00;;;;;;;9.98;55.41;99262.38;5099626;28;20107;-64
2024/03/24 00:59:44;;;;;;;10.70;6.97;;;;;;;9.93;54.98;99265.53;5099410;28;20032;-64
2024/03/24 01:02:10;;;;;;;14.27;8.35;;;;;;;9.59;56.20;99271.06;5099101;28;20036;-66
2024/03/24 01:04:36;;;;;;;13.55;7.72;;;;;;;9.72;56.01;99268.72;5099755;28;20040;-66
2024/03/24 01:07:01;;;;;;;16.48;8.98;;;;;;;9.84;55.43;99266.56;5098036;28;20031;-64
2024/03/24 01:09:28;;;;;;;14.68;6.78;;;;;;;9.87;54.91;99269.69;5098175;28;20345;-64
2024/03/24 01:11:54;;;;;;;12.50;7.78;;;;;;;9.76;55.76;99254.19;5099723;28;20040;-64
2024/03/24 01:14:20;;;;;;;12.20;7.63;;;;;;;9.85;54.99;99253.16;5099451;28;20330;-64
2024/03/24 01:16:45;;;;;;;10.77;7.78;;;;;;;9.88;55.12;99255.47;5099174;28;20234;-64
2024/03/24 01:19:10;;;;;;;10.70;7.57;;;;;;;9.96;55.44;99265.22;5099031;28;20024;-65
2024/03/24 01:21:36;;;;;;;12.85;6.90;;;;;;;9.99;54.61;99261.41;5098284;28;20032;-66
2024/03/24 01:24:03;;;;;;;12.52;6.97;;;;;;;9.89;54.81;99265.06;5098942;28;20325;-66
2024/03/24 01:26:29;;;;;;;12.77;8.45;;;;;;;9.79;55.28;99267.06;5097287;28;20060;-63
2024/03/24 01:28:54;;;;;;;15.80;7.82;;;;;;;9.73;55.52;99266.91;5099677;28;20036;-63
2024/03/24 01:31:19;;;;;;;13.32;7.70;;;;;;;9.70;55.66;99259.31;5096009;28;20037;-63
2024/03/24 01:33:45;;;;;;;13.18;7.45;;;;;;;9.65;55.44;99254.53;5098594;28;20040;-63
2024/03/24 01:36:10;;;;;;;15.77;8.05;;;;;;;9.66;55.53;99250.91;5096148;28;20032;-64
2024/03/24 01:38:36;;;;;;;14.60;7.97;;;;;;;9.78;55.28;99246.09;5097761;28;20086;-64
2024/03/24 01:41:01;;;;;;;11.25;6.93;;;;;;;9.76;55.20;99253.34;5097630;28;20121;-63
2024/03/24 01:43:27;;;;;;;11.70;7.63;;;;;;;9.66;55.71;99252.72;5097802;28;20028;-66
2024/03/24 01:45:52;;;;;;;15.80;7.85;;;;;;;9.66;55.33;99248.25;5097839;28;20048;-64
2024/03/24 01:48:18;;;;;;;16.48;8.63;;;;;;;9.59;55.52;99242.81;5097869;28;20039;-64
2024/03/24 01:50:44;;;;;;;13.75;7.53;;;;;;;9.54;55.49;99241.66;5098718;28;20024;-63
2024/03/24 01:53:10;;;;;;;12.38;7.78;;;;;;;9.58;55.29;99251.75;5097701;28;20039;-66
2024/03/24 01:55:36;;;;;;;12.85;7.90;;;;;;;9.27;56.49;99253.38;5098091;28;20062;-66
2024/03/24 01:58:03;;;;;;;13.43;7.10;;;;;;;9.41;56.14;99255.41;5097747;28;20066;-64
2024/03/24 02:00:29;;;;;;;13.02;7.78;;;;;;;9.48;56.08;99243.16;5097475;28;20035;-64
2024/03/24 02:02:54;;;;;;;14.43;8.13;;;;;;;9.53;55.61;99251.41;5097053;28;20081;-63
2024/03/24 02:05:27;;;;;;;14.05;8.75;;;;;;;9.48;56.00;99247.63;5098934;28;20047;-64
2024/03/24 02:07:53;;;;;;;14.48;7.75;;;;;;;9.49;55.82;99244.81;5096864;28;20030;-64
2024/03/24 02:10:18;;;;;;;14.23;8.27;;;;;;;9.49;55.85;99236.06;5097957;28;20035;-64
2024/03/24 02:12:44;;;;;;;14.50;8.13;;;;;;;9.50;55.69;99237.72;5096795;28;20028;-67
2024/03/24 02:15:13;;;;;;;13.07;8.13;;;;;;;9.52;55.43;99230.44;5096280;28;20039;-66
2024/03/24 02:17:39;;;;;;;15.80;8.35;;;;;;;9.57;55.11;99228.94;5096711;28;20353;-63
2024/03/24 02:20:04;;;;;;;14.38;8.18;;;;;;;9.46;55.35;99216.09;5097511;28;20028;-64
2024/03/24 02:22:36;;;;;;;13.18;8.02;;;;;;;9.43;55.33;99219.06;5097493;28;20321;-64
2024/03/24 02:25:01;;;;;;;15.73;9.65;;;;;;;9.42;56.63;99216.59;5097494;28;20115;-66
2024/03/24 02:27:26;;;;;;;15.52;7.85;;;;;;;9.29;56.40;99207.31;5097050;28;20046;-65
2024/03/24 02:29:52;;;;;;;16.77;8.07;;;;;;;9.33;56.25;99209.63;5097223;28;20348;-64
2024/03/24 02:32:17;;;;;;;16.48;7.68;;;;;;;9.24;56.48;99203.53;5096525;28;20048;-64
2024/03/24 02:34:43;;;;;;;12.93;7.50;;;;;;;9.22;56.81;99195.78;5097228;28;20036;-64
2024/03/24 02:37:08;;;;;;;16.67;8.27;;;;;;;9.29;57.36;99195.94;5095732;28;20043;-63
2024/03/24 02:39:34;;;;;;;15.98;7.85;;;;;;;9.28;56.53;99204.84;5095699;28;20047;-64
2024/03/24 02:41:59;;;;;;;13.55;8.43;;;;;;;9.12;57.30;99216.25;5097351;28;20044;-63
2024/03/24 02:44:27;;;;;;;15.65;8.77;;;;;;;8.80;58.29;99211.78;5096097;28;20055;-66
2024/03/24 02:46:52;;;;;;;14.15;8.88;;;;;;;8.89;57.98;99208.16;5097148;28;20099;-65
2024/03/24 02:49:18;;;;;;;14.32;8.05;;;;;;;9.03;57.74;99201.41;5096683;28;20035;-63
2024/03/24 02:51:43;;;;;;;14.18;8.85;;;;;;;8.86;57.22;99190.00;5097757;28;20040;-64
2024/03/24 02:54:09;;;;;;;16.33;9.52;;;;;;;8.83;57.58;99192.16;5078862;28;20036;-64
2024/03/24 02:56:34;;;;;;;14.75;8.18;;;;;;;8.92;57.38;99196.44;5096856;28;20043;-66
2024/03/24 02:58:59;;;;;;;13.68;8.02;;;;;;;9.01;57.61;99191.97;5096535;28;20042;-66
2024/03/24 03:01:25;;;;;;;13.32;7.95;;;;;;;8.99;57.39;99188.69;5096390;28;20051;-64
2024/03/24 03:03:50;;;;;;;21.15;8.90;;;;;;;9.03;57.27;99192.66;5096336;28;20293;-64
2024/03/24 03:06:16;;;;;;;14.73;8.32;;;;;;;9.04;56.96;99189.00;5096226;28;20044;-64
2024/03/24 03:08:41;;;;;;;13.23;6.78;;;;;;;8.69;56.40;99183.06;5096493;28;20028;-64
2024/03/24 03:11:07;;;;;;;13.27;7.75;;;;;;;8.54;57.15;99174.97;5095743;28;20044;-64
2024/03/24 03:13:33;;;;;;;16.60;8.57;;;;;;;8.56;57.40;99183.53;5097469;28;20032;-64
2024/03/24 03:15:58;;;;;;;13.63;8.20;;;;;;;8.42;58.35;99183.34;5095612;28;20040;-66
2024/03/24 03:18:24;;;;;;;15.85;8.18;;;;;;;8.35;58.35;99187.63;5097162;28;20240;-66
2024/03/24 03:20:49;;;;;;;16.95;8.20;;;;;;;8.19;59.63;99181.25;5094580;28;20046;-63
2024/03/24 03:23:14;;;;;;;15.15;7.90;;;;;;;8.23;60.16;99187.88;5096983;28;20047;-64
2024/03/24 03:25:40;;;;;;;14.15;7.30;;;;;;;8.24;59.83;99186.88;5095575;28;20340;-64
2024/03/24 03:28:06;;;;;;;15.27;8.13;;;;;;;8.26;59.96;99181.44;5096666;28;20379;-65
2024/03/24 03:30:32;;;;;;;14.50;7.25;;;;;;;8.40;59.66;99191.44;5095924;28;20050;-65
2024/03/24 03:32:57;;;;;;;16.95;8.30;;;;;;;8.25;60.38;99192.97;5096043;28;20070;-65
2024/03/24 03:35:23;;;;;;;14.30;8.32;;;;;;;8.39;60.10;99186.31;5096090;28;20140;-64
2024/03/24 03:37:48;;;;;;;18.38;9.32;;;;;;;8.32;60.65;99179.03;5095668;28;20063;-64
2024/03/24 03:40:14;;;;;;;14.73;6.60;;;;;;;8.05;60.64;99173.97;5095942;28;20059;-64
2024/03/24 03:42:39;;;;;;;16.98;7.40;;;;;;;7.93;60.06;99183.97;5095714;28;20102;-64
2024/03/24 03:45:06;;;;;;;17.40;7.57;;;;;;;7.82;60.06;99178.16;5097034;28;20043;-66
2024/03/24 03:47:32;;;;;;;18.02;6.88;;;;;;;7.87;60.14;99181.97;5095536;28;20111;-66
2024/03/24 03:50:00;;;;;;;21.23;8.07;;;;;;;7.88;60.28;99177.53;5097118;28;20066;-64
2024/03/24 03:52:28;;;;;;;15.35;8.00;;;;;;;7.98;61.01;99167.69;5094714;28;20321;-64
2024/03/24 03:54:57;;;;;;;16.15;7.07;;;;;;;8.02;60.71;99167.19;5096068;28;20293;-64
2024/03/24 03:57:23;;;;;;;15.52;8.77;;;;;;;8.04;60.90;99174.13;5094785;28;20108;-66
2024/03/24 03:59:50;;;;;;;16.35;8.00;;;;;;;8.10;60.80;99179.59;5096526;28;20040;-66
2024/03/24 04:02:15;;;;;;;15.05;7.90;;;;;;;8.13;61.22;99176.63;5095323;28;20199;-64
2024/03/24 04:04:41;;;;;;;19.75;8.45;;;;;;;8.14;60.73;99167.72;5096140;28;20036;-64
2024/03/24 04:07:06;;;;;;;17.48;8.00;;;;;;;8.19;60.44;99169.88;5095801;28;20032;-64
2024/03/24 04:09:32;;;;;;;14.68;7.82;;;;;;;8.26;60.18;99182.28;5095996;28;20043;-64
2024/03/24 04:11:57;;;;;;;14.43;7.43;;;;;;;8.26;60.23;99165.63;5095722;28;20329;-64
2024/03/24 04:14:23;;;;;;;16.27;7.88;;;;;;;8.21;59.90;99158.19;5095491;28;20031;-64
2024/03/24 04:16:50;;;;;;;15.35;8.25;;;;;;;8.15;60.13;99164.09;5095932;28;20032;-66
2024/03/24 04:19:16;;;;;;;15.68;8.95;;;;;;;8.14;60.11;99167.72;5095740;28;20040;-66
2024/03/24 04:21:42;;;;;;;16.60;7.90;;;;;;;8.20;60.82;99175.00;5095005;28;20043;-64
2024/03/24 04:24:07;;;;;;;16.08;9.25;;;;;;;8.25;59.92;99172.72;5095391;28;20043;-64
2024/03/24 04:26:33;;;;;;;22.40;10.27;;;;;;;8.21;60.11;99175.81;5096125;28;20043;-64
2024/03/24 04:28:58;;;;;;;16.17;8.68;;;;;;;8.23;60.42;99179.13;5093648;28;20030;-66
2024/03/24 04:31:24;;;;;;;16.13;8.35;;;;;;;8.06;61.29;99185.34;5095708;28;20112;-67
2024/03/24 04:33:49;;;;;;;21.50;11.32;;;;;;;8.06;62.07;99180.88;5094894;28;20036;-64
2024/03/24 04:36:15;;;;;;;27.77;13.40;;;;;;;8.26;62.03;99179.63;5095783;28;20035;-64
2024/03/24 04:38:40;;;;;;;26.77;13.20;;;;;;;8.42;61.71;99173.63;5097626;28;20237;-64
2024/03/24 04:41:08;;;;;;;22.92;12.32;;;;;;;8.38;61.41;99182.03;5099385;28;20036;-64
2024/03/24 04:43:33;;;;;;;24.90;12.10;;;;;;;8.37;60.97;99181.19;5099132;28;20032;-64
2024/03/24 04:45:59;;;;;;;21.88;11.85;;;;;;;8.46;60.97;99180.22;5099356;28;20226;-65
2024/03/24 04:48:24;;;;;;;21.20;10.88;;;;;;;8.26;60.93;99181.44;5099765;28;20326;-66
2024/03/24 04:50:50;;;;;;;22.55;11.05;;;;;;;8.49;60.77;99179.09;5099300;28;20081;-66
2024/03/24 04:53:15;;;;;;;21.63;11.88;;;;;;;8.58;61.12;99178.94;5099907;28;20032;-65
2024/03/24 04:55:41;;;;;;;29.10;13.38;;;;;;;8.67;61.57;99186.84;5098883;28;20067;-64
2024/03/24 04:58:08;;;;;;;23.88;11.70;;;;;;;8.75;61.08;99185.06;5099532;28;20276;-64
2024/03/24 05:00:33;;;;;;;26.75;11.68;;;;;;;8.87;61.74;99188.19;5097640;28;20055;-64
2024/03/24 05:02:59;;;;;;;21.98;11.75;;;;;;;8.95;60.98;99177.63;5098515;28;20113;-64
2024/03/24 05:05:24;;;;;;;21.85;9.73;;;;;;;9.10;60.51;99183.91;5099826;28;20040;-66
2024/03/24 05:07:50;;;;;;;17.50;9.13;;;;;;;9.19;59.58;99190.81;5098331;28;20369;-64
2024/03/24 05:10:18;;;;;;;11.82;7.25;;;;;;;9.17;59.66;99191.97;5099496;28;20032;-65
2024/03/24 05:12:43;;;;;;;14.43;8.40;;;;;;;9.18;60.12;99194.44;5097663;28;20039;-64
2024/03/24 05:15:10;;;;;;;17.55;10.52;;;;;;;9.13;60.56;99196.75;5098751;28;20043;-64
2024/03/24 05:17:36;;;;;;;27.65;15.80;;;;;;;9.03;61.36;99195.28;5097131;28;20043;-63
2024/03/24 05:20:02;;;;;;;17.50;10.80;;;;;;;9.19;61.23;99195.28;5099632;28;20028;-66
2024/03/24 05:22:27;;;;;;;19.60;10.38;;;;;;;9.36;61.12;99175.78;5096874;28;20103;-65
2024/03/24 05:24:53;;;;;;;18.83;10.38;;;;;;;9.55;61.22;99179.88;5098535;28;20765;-62
2024/03/24 05:27:19;;;;;;;19.90;11.27;;;;;;;9.72;60.29;99189.41;5099023;28;20044;-62
2024/03/24 05:29:44;;;;;;;15.95;9.38;;;;;;;9.76;59.98;99187.25;5098618;28;20028;-62
2024/03/24 05:32:13;;;;;;;13.70;9.00;;;;;;;9.78;60.61;99186.09;5098214;28;20039;-63
2024/03/24 05:34:42;;;;;;;12.40;7.68;;;;;;;9.82;60.66;99190.06;5098033;28;20032;-62
2024/03/24 05:37:07;;;;;;;10.52;8.18;;;;;;;9.76;60.80;99189.91;5098319;28;20048;-63
2024/03/24 05:39:33;;;;;;;16.08;8.30;;;;;;;9.62;61.74;99195.91;5097820;28;20227;-63
2024/03/24 05:41:58;;;;;;;13.23;7.70;;;;;;;9.59;61.73;99199.69;5098535;28;20043;-65
2024/03/24 05:44:24;;;;;;;12.50;7.80;;;;;;;9.82;61.50;99199.81;5095964;28;20032;-66
2024/03/24 05:46:49;;;;;;;15.98;8.77;;;;;;;9.77;61.29;99196.84;5098492;28;20333;-62
2024/03/24 05:49:15;;;;;;;18.40;8.60;;;;;;;9.94;60.81;99185.22;5097560;28;20043;-63
2024/03/24 05:51:40;;;;;;;13.45;7.88;;;;;;;10.03;61.69;99178.06;5098173;28;20074;-63
2024/03/24 05:54:06;;;;;;;16.95;8.65;;;;;;;10.16;60.86;99171.22;5098386;28;20067;-65
2024/03/24 05:56:32;;;;;;;14.57;8.35;;;;;;;10.34;60.03;99180.75;5098761;28;20046;-65
2024/03/24 05:58:57;;;;;;;15.80;9.30;;;;;;;10.44;59.39;99184.84;5099076;28;20314;-64
2024/03/24 06:01:24;;;;;;;13.18;8.50;;;;;;;10.47;59.42;99191.63;5099194;28;20040;-63
2024/03/24 06:03:50;;;;;;;19.20;9.35;;;;;;;10.54;58.61;99203.16;5099265;28;20047;-65
2024/03/24 06:06:16;;;;;;;26.90;12.85;;;;;;;10.57;58.83;99192.22;5097960;28;20035;-64
2024/03/24 06:08:42;;;;;;;22.80;8.35;;;;;;;10.70;58.36;99194.28;5098504;28;20064;-63
2024/03/24 06:11:07;;;;;;;12.05;7.30;;;;;;;10.85;58.40;99185.41;5098050;28;20047;-63
2024/03/24 06:13:33;;;;;;;14.63;6.65;;;;;;;11.06;57.56;99179.44;5098586;28;20310;-63
2024/03/24 06:16:01;;;;;;;12.38;7.75;;;;;;;11.35;57.19;99183.16;5098588;28;20035;-62
2024/03/24 06:18:26;;;;;;;11.52;7.57;;;;;;;11.46;54.88;99186.22;5099287;28;20028;-63
2024/03/24 06:20:53;;;;;;;14.57;7.93;;;;;;;11.57;55.51;99174.34;5097656;28;20089;-65
2024/03/24 06:23:20;;;;;;;12.93;6.80;;;;;;;11.93;54.19;99179.75;5099127;28;20073;-63
2024/03/24 06:25:46;;;;;;;14.15;7.97;;;;;;;12.26;52.57;99182.00;5097485;28;20219;-64
2024/03/24 06:28:11;;;;;;;12.95;9.45;;;;;;;12.50;52.12;99176.38;5098585;28;20028;-63
2024/03/24 06:30:38;;;;;;;12.40;9.18;;;;;;;12.68;50.88;99179.41;5097551;28;20047;-63
2024/03/24 06:33:05;;;;;;;13.90;8.38;;;;;;;12.51;51.67;99175.34;5098752;28;20036;-65
2024/03/24 06:35:30;;;;;;;12.55;8.48;;;;;;;12.61;51.54;99180.38;5097648;28;20098;-63
2024/03/24 06:37:56;;;;;;;23.90;9.65;;;;;;;12.68;51.03;99179.41;5097423;28;20095;-63
2024/03/24 06:40:21;;;;;;;16.85;10.77;;;;;;;12.85;51.03;99174.66;5097733;28;20071;-63
2024/03/24 06:43:07;;;;;;;16.30;9.98;;;;;;;12.99;50.26;99170.28;5097791;28;20028;-63
2024/03/24 06:45:36;;;;;;;10.98;8.07;;;;;;;13.10;49.26;99165.28;5089624;28;20310;-63
2024/03/24 06:48:05;;;;;;;9.63;6.32;;;;;;;13.03;47.94;99158.28;5077314;28;20048;-63
2024/03/24 06:50:31;;;;;;;13.88;7.82;;;;;;;13.16;47.87;99176.16;5082814;28;20119;-63
2024/03/24 06:52:58;;;;;;;13.77;8.00;;;;;;;13.26;48.33;99168.69;5097840;28;20395;-63
2024/03/24 06:55:24;;;;;;;15.93;7.82;;;;;;;13.25;48.86;99169.72;5098150;28;20040;-63
2024/03/24 06:57:50;;;;;;;12.50;7.30;;;;;;;13.18;49.14;99164.34;5097416;28;20070;-65
2024/03/24 07:00:19;;;;;;;11.50;6.63;;;;;;;13.27;49.67;99159.72;5098178;28;20016;-64
2024/03/24 07:02:45;;;;;;;8.88;6.15;;;;;;;13.13;49.12;99156.09;5076980;28;20067;-63
2024/03/24 07:05:11;;;;;;;10.48;7.43;;;;;;;13.21;50.15;99148.00;5078042;28;20433;-63
2024/03/24 07:07:37;;;;;;;10.27;7.00;;;;;;;13.45;48.57;99153.91;5092990;28;20062;-63
2024/03/24 07:10:03;;;;;;;15.85;7.88;;;;;;;13.56;48.48;99158.72;5097372;28;20077;-64
2024/03/24 07:12:29;;;;;;;18.48;10.80;;;;;;;13.64;49.32;99153.22;5096528;28;20043;-63
2024/03/24 07:14:54;;;;;;;13.52;9.13;;;;;;;13.84;48.66;99158.66;5097074;28;20039;-63
2024/03/24 07:17:20;;;;;;;16.63;9.55;;;;;;;14.04;48.10;99162.22;5084357;28;20133;-63
2024/03/24 07:19:46;;;;;;;12.27;9.23;;;;;;;14.23;48.08;99166.81;5077777;28;20052;-65
2024/03/24 07:22:12;;;;;;;10.50;8.18;;;;;;;14.35;47.34;99159.88;5085800;28;20081;-64
2024/03/24 07:24:37;;;;;;;16.70;9.30;;;;;;;14.64;46.52;99149.97;5097184;28;20032;-63
2024/03/24 07:27:03;;;;;;;14.20;8.77;;;;;;;14.56;46.15;99145.63;5091494;28;20103;-63
2024/03/24 07:29:29;;;;;;;16.92;10.45;;;;;;;14.89;45.89;99144.88;5076287;28;20359;-63
2024/03/24 07:31:54;;;;;;;12.38;8.52;;;;;;;14.81;46.49;99145.06;5079518;28;20142;-65
2024/03/24 07:34:20;;;;;;;12.73;7.65;;;;;;;14.84;47.04;99142.81;5097689;28;20040;-64
2024/03/24 07:36:45;;;;;;;12.75;7.97;;;;;;;15.19;45.63;99139.94;5097684;28;20113;-63
2024/03/24 07:39:11;;;;;;;12.93;8.30;;;;;;;15.40;45.57;99136.22;5095968;28;20055;-64
2024/03/24 07:41:37;;;;;;;12.07;8.65;;;;;;;15.67;45.50;99137.88;5097601;28;20578;-63
2024/03/24 07:44:03;;;;;;;12.77;8.90;;;;;;;15.70;45.35;99133.97;5080179;28;20044;-64
2024/03/24 07:46:28;;;;;;;14.32;8.55;;;;;;;15.91;45.14;99133.69;5096217;28;20044;-63
2024/03/24 07:48:54;;;;;;;12.82;8.45;;;;;;;16.05;44.07;99126.44;5096365;28;20060;-64
2024/03/24 07:51:19;;;;;;;12.27;8.68;;;;;;;16.13;42.71;99135.03;5097085;28;20035;-64
2024/03/24 07:53:45;;;;;;;12.77;8.63;;;;;;;16.16;42.37;99134.59;5096797;28;20055;-66
2024/03/24 07:56:11;;;;;;;12.43;8.15;;;;;;;16.32;42.61;99125.28;5079414;28;20218;-67
2024/03/24 07:58:36;;;;;;;13.00;10.23;;;;;;;16.47;42.52;99122.31;5086870;28;20028;-64
2024/03/24 08:01:02;;;;;;;12.77;8.82;;;;;;;16.56;41.76;99121.84;5095995;28;20056;-64
2024/03/24 08:03:27;;;;;;;17.80;11.32;;;;;;;16.50;41.80;99114.69;5097633;28;20237;-63
2024/03/24 08:05:53;;;;;;;15.15;9.27;;;;;;;16.62;42.00;99114.81;5098320;28;20036;-64
2024/03/24 08:08:18;;;;;;;15.20;9.02;;;;;;;16.72;41.18;99109.88;5097605;28;20047;-63
2024/03/24 08:10:44;;;;;;;13.48;9.25;;;;;;;16.84;41.92;99105.47;5097133;28;20035;-67
2024/03/24 08:13:10;;;;;;;10.68;8.15;;;;;;;16.89;41.42;99097.59;5100036;28;20079;-66
2024/03/24 08:15:35;;;;;;;11.95;6.97;;;;;;;17.11;39.92;99097.19;5099474;28;20226;-65
2024/03/24 08:18:00;;;;;;;15.27;8.65;;;;;;;17.20;40.29;99103.91;5094549;28;20032;-64
2024/03/24 08:20:27;;;;;;;16.02;10.05;;;;;;;17.33;39.96;99098.44;5094299;28;20416;-64
2024/03/24 08:22:54;;;;;;;17.80;10.13;;;;;;;17.17;40.28;99081.09;5101035;28;20032;-64
2024/03/24 08:25:20;;;;;;;12.63;8.32;;;;;;;17.14;40.25;99089.56;5100612;28;20047;-64
2024/03/24 08:27:45;;;;;;;13.43;8.35;;;;;;;17.28;40.11;99081.41;5101482;28;20028;-64
2024/03/24 08:30:11;;;;;;;12.23;8.38;;;;;;;17.17;40.15;99080.28;5100453;28;20265;-64
2024/03/24 08:32:36;;;;;;;12.80;7.97;;;;;;;16.87;41.30;99078.28;5100624;28;20032;-63
2024/03/24 08:35:02;;;;;;;9.30;7.13;;;;;;;16.89;41.71;99064.69;5101822;28;20093;-64
2024/03/24 08:37:27;;;;;;;10.88;7.90;;;;;;;16.96;41.79;99078.00;5100783;28;20053;-65
2024/03/24 08:39:53;;;;;;;14.95;8.07;;;;;;;16.98;41.54;99062.56;5100282;28;20043;-65
2024/03/24 08:42:18;;;;;;;9.90;7.55;;;;;;;17.18;40.70;99057.84;5099742;28;20334;-63
2024/03/24 08:44:44;;;;;;;11.52;8.13;;;;;;;17.33;41.60;99055.63;5100619;28;20058;-63
2024/03/24 08:47:11;;;;;;;11.15;7.15;;;;;;;17.28;41.94;99058.13;5101041;28;20318;-63
2024/03/24 08:49:37;;;;;;;11.18;7.63;;;;;;;16.77;43.35;99050.41;5101306;28;20039;-63
2024/03/24 08:52:02;;;;;;;20.75;7.78;;;;;;;16.74;43.17;99048.16;5099892;28;20346;-63
2024/03/24 08:54:28;;;;;;;10.10;7.10;;;;;;;16.43;44.22;99043.63;5101160;28;20044;-64
2024/03/24 08:56:53;;;;;;;10.90;7.05;;;;;;;16.37;44.44;99039.13;5100679;28;20028;-63
2024/03/24 08:59:20;;;;;;;12.38;7.88;;;;;;;16.45;45.01;99045.03;5100855;28;20048;-63
2024/03/24 09:01:46;;;;;;;14.70;8.13;;;;;;;16.73;44.36;99035.84;5099745;28;20028;-63
2024/03/24 09:04:11;;;;;;;9.93;6.90;;;;;;;16.95;43.11;99037.06;5100437;28;20051;-63
2024/03/24 09:06:37;;;;;;;11.45;7.07;;;;;;;17.11;42.90;99031.16;5100402;28;20150;-63
2024/03/24 09:09:02;;;;;;;11.32;7.40;;;;;;;17.09;42.47;99027.88;5100839;28;20051;-63
2024/03/24 09:11:28;;;;;;;16.45;8.57;;;;;;;16.81;43.98;99019.50;5100440;28;20222;-63
2024/03/24 09:13:53;;;;;;;11.57;8.20;;;;;;;16.45;43.57;99022.84;5100381;28;20044;-65
2024/03/24 09:16:19;;;;;;;12.60;7.32;;;;;;;16.52;43.70;99015.59;5100371;28;20207;-63
2024/03/24 09:18:48;;;;;;;13.05;7.55;;;;;;;16.91;43.45;99011.81;5100894;28;20322;-63
2024/03/24 09:21:13;;;;;;;10.82;7.30;;;;;;;17.03;43.79;99010.03;5100489;28;20059;-63
2024/03/24 09:23:39;;;;;;;13.25;7.82;;;;;;;17.16;41.79;99004.53;5099772;28;20036;-63
2024/03/24 09:26:04;;;;;;;11.65;7.70;;;;;;;17.27;41.49;98997.63;5100247;28;20043;-63
2024/03/24 09:28:30;;;;;;;11.20;7.80;;;;;;;17.24;44.20;98985.53;5100383;28;20054;-65
2024/03/24 09:31:03;;;;;;;16.33;7.93;;;;;;;17.06;43.16;98987.38;5099937;28;20047;-64
2024/03/24 09:33:29;;;;;;;11.00;7.47;;;;;;;17.02;42.97;98984.34;5087021;28;20040;-65
2024/03/24 09:36:01;;;;;;;9.85;7.40;;;;;;;16.81;43.95;98972.22;5098784;28;20077;-64
2024/03/24 09:38:27;;;;;;;10.05;6.25;;;;;;;16.68;43.84;98964.31;5088181;28;20389;-64
2024/03/24 09:40:53;;;;;;;8.05;6.10;;;;;;;16.74;45.25;98955.41;5100195;28;20032;-65
2024/03/24 09:43:19;;;;;;;10.57;6.53;;;;;;;16.69;45.36;98952.59;5100212;28;20058;-65
2024/03/24 09:45:45;;;;;;;7.55;6.72;;;;;;;16.63;45.97;98942.72;5099759;28;20549;-64
2024/03/24 09:48:15;;;;;;;7.95;6.05;;;;;;;16.52;44.34;98936.25;5100015;28;20055;-66
2024/03/24 09:50:42;;;;;;;6.75;5.40;;;;;;;16.60;47.13;98938.63;5099591;28;20047;-67
2024/03/24 09:53:09;;;;;;;7.60;6.13;;;;;;;16.68;45.40;98931.41;5099766;28;20040;-62
2024/03/24 09:55:34;;;;;;;9.65;6.65;;;;;;;16.78;46.38;98921.03;5099413;28;20043;-63
2024/03/24 09:58:01;;;;;;;10.40;5.95;;;;;;;16.84;45.89;98912.94;5100049;28;20226;-62
2024/03/24 10:00:26;;;;;;;10.40;6.82;;;;;;;16.96;45.61;98909.53;5099065;28;20105;-63
2024/03/24 10:02:53;;;;;;;9.75;6.57;;;;;;;17.10;45.47;98894.94;5099486;28;20087;-64
2024/03/24 10:05:19;;;;;;;8.95;6.20;;;;;;;17.07;46.82;98908.78;5099465;28;20047;-62
2024/03/24 10:07:45;;;;;;;8.50;6.45;;;;;;;17.21;43.71;98883.50;5099847;28;20226;-62
2024/03/24 10:10:12;;;;;;;8.93;6.40;;;;;;;17.15;47.38;98890.56;5098872;28;20095;-63
2024/03/24 10:12:37;;;;;;;7.28;5.47;;;;;;;17.07;43.97;98885.53;5098994;28;20031;-62
2024/03/24 10:15:16;;;;;;;8.43;6.05;;;;;;;16.97;44.45;98882.56;5099301;28;20047;-63
2024/03/24 10:17:42;;;;;;;9.27;6.20;;;;;;;17.18;44.09;98879.41;5099599;28;20047;-63
2024/03/24 10:20:11;;;;;;;9.63;7.00;;;;;;;17.16;43.34;98870.78;5098006;28;20334;-63
2024/03/24 10:22:36;;;;;;;6.95;5.70;;;;;;;17.03;45.74;98868.28;5098249;28;20040;-63
2024/03/24 10:25:02;;;;;;;129.05;20.23;;;;;;;17.26;45.96;98859.56;5098593;28;20048;-65
2024/03/24 10:27:29;;;;;;;8.10;5.88;;;;;;;17.27;43.75;98860.38;5098136;28;20036;-64
2024/03/24 10:29:55;;;;;;;8.60;6.00;;;;;;;17.36;43.83;98843.78;5097816;28;20180;-64
2024/03/24 10:32:20;;;;;;;8.45;6.13;;;;;;;17.37;46.73;98826.66;5098616;28;20027;-65
2024/03/24 10:34:46;;;;;;;8.40;5.75;;;;;;;17.48;46.14;98838.47;5098724;28;20059;-64
2024/03/24 10:37:12;;;;;;;7.32;5.93;;;;;;;17.48;46.02;98841.94;5098906;28;20345;-63
2024/03/24 10:39:38;;;;;;;8.90;6.13;;;;;;;17.56;45.48;98835.44;5085001;28;20047;-63
2024/03/24 10:42:09;;;;;;;7.60;5.22;;;;;;;17.42;44.79;98825.97;5098003;28;20058;-63
2024/03/24 10:44:36;;;;;;;9.35;5.85;;;;;;;17.58;44.81;98827.19;5098832;28;20036;-64
2024/03/24 10:47:02;;;;;;;8.88;6.03;;;;;;;17.69;44.35;98821.91;5098453;28;20036;-64
2024/03/24 10:49:30;;;;;;;7.03;5.40;;;;;;;17.76;43.85;98813.78;5099363;28;20348;-63
2024/03/24 10:51:57;;;;;;;40.47;9.25;;;;;;;17.73;45.85;98803.53;5098253;28;20035;-64
2024/03/24 10:54:23;;;;;;;8.15;5.50;;;;;;;17.71;43.99;98790.38;5098723;28;20082;-64
2024/03/24 10:56:49;;;;;;;9.63;6.28;;;;;;;17.78;44.11;98791.09;5098920;28;20035;-63
2024/03/24 10:59:17;;;;;;;9.48;6.20;;;;;;;17.68;45.03;98788.13;5097948;28;20364;-66
2024/03/24 11:01:44;;;;;;;9.27;6.60;;;;;;;17.76;45.54;98774.44;5098386;28;20040;-65
2024/03/24 11:04:10;;;;;;;10.73;6.55;;;;;;;17.83;46.34;98768.97;5098885;28;20047;-64
2024/03/24 11:06:37;;;;;;;9.65;6.72;;;;;;;17.96;46.60;98767.91;5098289;28;20044;-64
2024/03/24 11:09:05;;;;;;;8.73;7.50;;;;;;;17.97;45.09;98758.84;5098041;28;20047;-64
2024/03/24 11:11:32;;;;;;;8.95;6.55;;;;;;;18.06;45.58;98755.56;5098247;28;20039;-64
2024/03/24 11:13:58;;;;;;;11.57;6.18;;;;;;;18.06;43.50;98757.44;5098572;28;20036;-64
2024/03/24 11:16:24;;;;;;;8.50;6.53;;;;;;;18.15;43.72;98748.00;5097641;28;20244;-64
2024/03/24 11:18:50;;;;;;;10.38;6.57;;;;;;;18.18;44.33;98753.69;5098320;28;20032;-64
2024/03/24 11:21:29;;;;;;;11.63;5.68;;;;;;;18.28;43.27;98750.41;5098612;28;20032;-64
2024/03/24 11:23:55;;;;;;;7.55;5.38;;;;;;;18.34;41.41;98735.25;5098892;28;20036;-64